sensor_id;sensor_type;location;lat;lon;timestamp;P1;durP1;ratioP1;P2;durP2;ratioP2
25153;SDS011;47555;51.038;6.280;2023-11-19T00:02:11;1.67;;;1.30;;
25153;SDS011;47555;51.038;6.280;2023-11-19T00:04:37;1.92;;;1.30;;
25153;SDS011;47555;51.038;6.280;2023-11-19T00:07:04;1.80;;;1.38;;
25153;SDS011;47555;51.038;6.280;2023-11-19T00:09:32;1.30;;;1.20;;
25153;SDS011;47555;51.038;6.280;2023-11-19T00:11:58;1.30;;;1.05;;
25153;SDS011;47555;51.038;6.280;2023-11-19T00:14:25;1.20;;;1.10;;
25153;SDS011;47555;51.038;6.280;2023-11-19T00:16:51;5.97;;;1.50;;
25153;SDS011;47555;51.038;6.280;2023-11-19T00:19:18;2.25;;;1.13;;
25153;SDS011;47555;51.038;6.280;2023-11-19T00:21:44;1.25;;;1.15;;
25153;SDS011;47555;51.038;6.280;2023-11-19T00:24:11;1.20;;;0.80;;
25153;SDS011;47555;51.038;6.280;2023-11-19T00:26:37;1.20;;;0.95;;
25153;SDS011;47555;51.038;6.280;2023-11-19T00:29:03;1.05;;;0.80;;
25153;SDS011;47555;51.038;6.280;2023-11-19T00:31:31;1.88;;;0.95;;
25153;SDS011;47555;51.038;6.280;2023-11-19T00:33:57;0.80;;;0.80;;
25153;SDS011;47555;51.038;6.280;2023-11-19T00:36:23;1.85;;;0.90;;
25153;SDS011;47555;51.038;6.280;2023-11-19T00:38:50;0.90;;;0.70;;
25153;SDS011;47555;51.038;6.280;2023-11-19T00:41:17;1.25;;;0.90;;
25153;SDS011;47555;51.038;6.280;2023-11-19T00:43:43;1.15;;;1.00;;
25153;SDS011;47555;51.038;6.280;2023-11-19T00:46:09;3.33;;;0.80;;
25153;SDS011;47555;51.038;6.280;2023-11-19T00:48:39;1.00;;;0.90;;
25153;SDS011;47555;51.038;6.280;2023-11-19T00:51:05;0.85;;;0.80;;
25153;SDS011;47555;51.038;6.280;2023-11-19T00:53:31;1.08;;;0.80;;
25153;SDS011;47555;51.038;6.280;2023-11-19T00:56:01;1.35;;;0.70;;
25153;SDS011;47555;51.038;6.280;2023-11-19T00:58:27;1.35;;;0.80;;
25153;SDS011;47555;51.038;6.280;2023-11-19T01:00:54;1.23;;;0.80;;
25153;SDS011;47555;51.038;6.280;2023-11-19T01:03:22;1.00;;;0.82;;
25153;SDS011;47555;51.038;6.280;2023-11-19T01:05:48;1.55;;;1.00;;
25153;SDS011;47555;51.038;6.280;2023-11-19T01:08:14;1.60;;;1.17;;
25153;SDS011;47555;51.038;6.280;2023-11-19T01:10:41;2.58;;;0.90;;
25153;SDS011;47555;51.038;6.280;2023-11-19T01:13:07;1.17;;;1.08;;
25153;SDS011;47555;51.038;6.280;2023-11-19T01:15:33;1.90;;;1.17;;
25153;SDS011;47555;51.038;6.280;2023-11-19T01:17:59;1.30;;;1.20;;
25153;SDS011;47555;51.038;6.280;2023-11-19T01:20:25;3.78;;;1.27;;
25153;SDS011;47555;51.038;6.280;2023-11-19T01:22:51;1.63;;;1.50;;
25153;SDS011;47555;51.038;6.280;2023-11-19T01:25:17;3.25;;;2.13;;
25153;SDS011;47555;51.038;6.280;2023-11-19T01:27:43;3.67;;;1.60;;
25153;SDS011;47555;51.038;6.280;2023-11-19T01:30:09;5.70;;;1.77;;
25153;SDS011;47555;51.038;6.280;2023-11-19T01:32:38;2.50;;;1.55;;
25153;SDS011;47555;51.038;6.280;2023-11-19T01:35:04;4.70;;;2.03;;
25153;SDS011;47555;51.038;6.280;2023-11-19T01:37:30;3.22;;;1.90;;
25153;SDS011;47555;51.038;6.280;2023-11-19T01:39:57;2.50;;;1.83;;
25153;SDS011;47555;51.038;6.280;2023-11-19T01:42:23;5.07;;;2.17;;
25153;SDS011;47555;51.038;6.280;2023-11-19T01:44:57;2.65;;;2.05;;
25153;SDS011;47555;51.038;6.280;2023-11-19T01:47:24;4.80;;;2.17;;
25153;SDS011;47555;51.038;6.280;2023-11-19T01:49:50;4.03;;;2.08;;
25153;SDS011;47555;51.038;6.280;2023-11-19T01:52:16;4.47;;;2.10;;
25153;SDS011;47555;51.038;6.280;2023-11-19T01:54:42;7.00;;;2.65;;
25153;SDS011;47555;51.038;6.280;2023-11-19T01:57:09;5.32;;;1.95;;
25153;SDS011;47555;51.038;6.280;2023-11-19T01:59:35;7.53;;;2.30;;
25153;SDS011;47555;51.038;6.280;2023-11-19T02:02:01;2.83;;;2.20;;
25153;SDS011;47555;51.038;6.280;2023-11-19T02:04:27;5.65;;;2.67;;
25153;SDS011;47555;51.038;6.280;2023-11-19T02:06:54;5.57;;;2.67;;
25153;SDS011;47555;51.038;6.280;2023-11-19T02:09:22;7.53;;;2.65;;
25153;SDS011;47555;51.038;6.280;2023-11-19T02:11:48;4.80;;;2.50;;
25153;SDS011;47555;51.038;6.280;2023-11-19T02:14:16;8.98;;;2.53;;
25153;SDS011;47555;51.038;6.280;2023-11-19T02:16:42;3.97;;;2.15;;
25153;SDS011;47555;51.038;6.280;2023-11-19T02:19:08;8.38;;;2.20;;
25153;SDS011;47555;51.038;6.280;2023-11-19T02:21:36;5.57;;;2.78;;
25153;SDS011;47555;51.038;6.280;2023-11-19T02:24:05;6.80;;;2.28;;
25153;SDS011;47555;51.038;6.280;2023-11-19T02:26:44;7.50;;;2.30;;
25153;SDS011;47555;51.038;6.280;2023-11-19T02:29:13;6.05;;;2.38;;
25153;SDS011;47555;51.038;6.280;2023-11-19T02:31:39;9.13;;;3.50;;
25153;SDS011;47555;51.038;6.280;2023-11-19T02:34:04;5.30;;;2.25;;
25153;SDS011;47555;51.038;6.280;2023-11-19T02:36:30;8.55;;;2.00;;
25153;SDS011;47555;51.038;6.280;2023-11-19T02:38:57;7.85;;;2.70;;
25153;SDS011;47555;51.038;6.280;2023-11-19T02:41:23;5.15;;;2.22;;
25153;SDS011;47555;51.038;6.280;2023-11-19T02:43:49;5.25;;;2.05;;
25153;SDS011;47555;51.038;6.280;2023-11-19T02:46:15;8.18;;;2.40;;
25153;SDS011;47555;51.038;6.280;2023-11-19T02:48:42;4.72;;;1.98;;
25153;SDS011;47555;51.038;6.280;2023-11-19T02:51:09;7.05;;;2.03;;
25153;SDS011;47555;51.038;6.280;2023-11-19T02:53:35;5.93;;;2.30;;
25153;SDS011;47555;51.038;6.280;2023-11-19T02:56:04;6.90;;;2.10;;
25153;SDS011;47555;51.038;6.280;2023-11-19T02:58:43;7.10;;;2.55;;
25153;SDS011;47555;51.038;6.280;2023-11-19T03:01:09;8.15;;;1.98;;
25153;SDS011;47555;51.038;6.280;2023-11-19T03:03:37;9.95;;;2.22;;
25153;SDS011;47555;51.038;6.280;2023-11-19T03:06:05;8.45;;;2.20;;
25153;SDS011;47555;51.038;6.280;2023-11-19T03:08:31;7.82;;;1.70;;
25153;SDS011;47555;51.038;6.280;2023-11-19T03:10:58;5.38;;;2.15;;
25153;SDS011;47555;51.038;6.280;2023-11-19T03:13:24;11.65;;;2.22;;
25153;SDS011;47555;51.038;6.280;2023-11-19T03:15:50;10.57;;;3.72;;
25153;SDS011;47555;51.038;6.280;2023-11-19T03:18:16;8.38;;;2.17;;
25153;SDS011;47555;51.038;6.280;2023-11-19T03:20:42;11.60;;;3.05;;
25153;SDS011;47555;51.038;6.280;2023-11-19T03:23:08;9.32;;;2.40;;
25153;SDS011;47555;51.038;6.280;2023-11-19T03:25:35;13.38;;;2.35;;
25153;SDS011;47555;51.038;6.280;2023-11-19T03:28:02;11.38;;;2.38;;
25153;SDS011;47555;51.038;6.280;2023-11-19T03:30:29;12.93;;;2.63;;
25153;SDS011;47555;51.038;6.280;2023-11-19T03:32:55;10.15;;;2.67;;
25153;SDS011;47555;51.038;6.280;2023-11-19T03:35:21;13.13;;;2.88;;
25153;SDS011;47555;51.038;6.280;2023-11-19T03:37:47;7.85;;;2.10;;
25153;SDS011;47555;51.038;6.280;2023-11-19T03:40:13;8.55;;;2.40;;
25153;SDS011;47555;51.038;6.280;2023-11-19T03:42:39;7.68;;;2.15;;
25153;SDS011;47555;51.038;6.280;2023-11-19T03:45:06;10.20;;;2.67;;
25153;SDS011;47555;51.038;6.280;2023-11-19T03:47:33;11.82;;;2.97;;
25153;SDS011;47555;51.038;6.280;2023-11-19T03:49:59;7.32;;;2.45;;
25153;SDS011;47555;51.038;6.280;2023-11-19T03:52:25;9.15;;;2.50;;
25153;SDS011;47555;51.038;6.280;2023-11-19T03:54:54;12.02;;;2.92;;
25153;SDS011;47555;51.038;6.280;2023-11-19T03:57:22;5.85;;;2.47;;
25153;SDS011;47555;51.038;6.280;2023-11-19T03:59:48;8.88;;;3.25;;
25153;SDS011;47555;51.038;6.280;2023-11-19T04:02:14;15.27;;;2.65;;
25153;SDS011;47555;51.038;6.280;2023-11-19T04:04:40;5.70;;;2.33;;
25153;SDS011;47555;51.038;6.280;2023-11-19T04:07:06;11.88;;;2.60;;
25153;SDS011;47555;51.038;6.280;2023-11-19T04:09:32;9.80;;;2.13;;
25153;SDS011;47555;51.038;6.280;2023-11-19T04:11:58;12.25;;;2.67;;
25153;SDS011;47555;51.038;6.280;2023-11-19T04:14:25;10.13;;;2.75;;
25153;SDS011;47555;51.038;6.280;2023-11-19T04:16:51;9.02;;;3.00;;
25153;SDS011;47555;51.038;6.280;2023-11-19T04:19:17;9.15;;;2.03;;
25153;SDS011;47555;51.038;6.280;2023-11-19T04:21:43;9.95;;;2.83;;
25153;SDS011;47555;51.038;6.280;2023-11-19T04:24:10;12.20;;;2.20;;
25153;SDS011;47555;51.038;6.280;2023-11-19T04:26:45;10.57;;;2.80;;
25153;SDS011;47555;51.038;6.280;2023-11-19T04:29:14;11.82;;;3.30;;
25153;SDS011;47555;51.038;6.280;2023-11-19T04:31:42;12.63;;;2.70;;
25153;SDS011;47555;51.038;6.280;2023-11-19T04:34:08;15.45;;;3.17;;
25153;SDS011;47555;51.038;6.280;2023-11-19T04:36:34;11.85;;;2.83;;
25153;SDS011;47555;51.038;6.280;2023-11-19T04:39:00;11.18;;;2.22;;
25153;SDS011;47555;51.038;6.280;2023-11-19T04:41:26;8.35;;;2.30;;
25153;SDS011;47555;51.038;6.280;2023-11-19T04:43:53;11.50;;;2.13;;
25153;SDS011;47555;51.038;6.280;2023-11-19T04:46:19;10.10;;;2.63;;
25153;SDS011;47555;51.038;6.280;2023-11-19T04:48:45;9.05;;;2.00;;
25153;SDS011;47555;51.038;6.280;2023-11-19T04:51:11;12.63;;;2.83;;
25153;SDS011;47555;51.038;6.280;2023-11-19T04:53:37;11.15;;;3.15;;
25153;SDS011;47555;51.038;6.280;2023-11-19T04:56:09;24.23;;;4.20;;
25153;SDS011;47555;51.038;6.280;2023-11-19T04:58:36;12.27;;;2.50;;
25153;SDS011;47555;51.038;6.280;2023-11-19T05:01:02;14.32;;;2.63;;
25153;SDS011;47555;51.038;6.280;2023-11-19T05:03:28;9.48;;;2.47;;
25153;SDS011;47555;51.038;6.280;2023-11-19T05:05:55;11.23;;;3.08;;
25153;SDS011;47555;51.038;6.280;2023-11-19T05:08:21;14.27;;;3.35;;
25153;SDS011;47555;51.038;6.280;2023-11-19T05:10:46;7.82;;;2.50;;
25153;SDS011;47555;51.038;6.280;2023-11-19T05:13:16;9.95;;;2.80;;
25153;SDS011;47555;51.038;6.280;2023-11-19T05:15:42;15.52;;;2.78;;
25153;SDS011;47555;51.038;6.280;2023-11-19T05:18:08;12.60;;;3.63;;
25153;SDS011;47555;51.038;6.280;2023-11-19T05:20:34;13.90;;;2.45;;
25153;SDS011;47555;51.038;6.280;2023-11-19T05:23:00;6.75;;;2.30;;
25153;SDS011;47555;51.038;6.280;2023-11-19T05:25:26;10.63;;;2.70;;
25153;SDS011;47555;51.038;6.280;2023-11-19T05:27:52;14.32;;;2.55;;
25153;SDS011;47555;51.038;6.280;2023-11-19T05:30:18;9.02;;;2.05;;
25153;SDS011;47555;51.038;6.280;2023-11-19T05:32:44;10.52;;;2.60;;
25153;SDS011;47555;51.038;6.280;2023-11-19T05:35:11;12.40;;;2.58;;
25153;SDS011;47555;51.038;6.280;2023-11-19T05:37:37;15.38;;;2.75;;
25153;SDS011;47555;51.038;6.280;2023-11-19T05:40:03;15.05;;;2.67;;
25153;SDS011;47555;51.038;6.280;2023-11-19T05:42:33;12.50;;;2.92;;
25153;SDS011;47555;51.038;6.280;2023-11-19T05:45:00;9.30;;;2.65;;
25153;SDS011;47555;51.038;6.280;2023-11-19T05:47:26;9.68;;;2.55;;
25153;SDS011;47555;51.038;6.280;2023-11-19T05:49:51;9.27;;;2.78;;
25153;SDS011;47555;51.038;6.280;2023-11-19T05:52:18;14.48;;;2.55;;
25153;SDS011;47555;51.038;6.280;2023-11-19T05:54:46;14.68;;;2.70;;
25153;SDS011;47555;51.038;6.280;2023-11-19T05:57:16;12.75;;;2.65;;
25153;SDS011;47555;51.038;6.280;2023-11-19T05:59:47;13.43;;;3.00;;
25153;SDS011;47555;51.038;6.280;2023-11-19T06:02:14;11.60;;;2.83;;
25153;SDS011;47555;51.038;6.280;2023-11-19T06:04:40;15.70;;;3.53;;
25153;SDS011;47555;51.038;6.280;2023-11-19T06:07:09;15.95;;;3.63;;
25153;SDS011;47555;51.038;6.280;2023-11-19T06:09:35;9.05;;;2.40;;
25153;SDS011;47555;51.038;6.280;2023-11-19T06:12:00;17.27;;;2.60;;
25153;SDS011;47555;51.038;6.280;2023-11-19T06:14:27;13.77;;;2.78;;
25153;SDS011;47555;51.038;6.280;2023-11-19T06:16:53;16.83;;;4.20;;
25153;SDS011;47555;51.038;6.280;2023-11-19T06:19:19;8.88;;;2.35;;
25153;SDS011;47555;51.038;6.280;2023-11-19T06:21:45;14.43;;;3.28;;
25153;SDS011;47555;51.038;6.280;2023-11-19T06:24:11;12.02;;;3.15;;
25153;SDS011;47555;51.038;6.280;2023-11-19T06:26:37;12.65;;;2.20;;
25153;SDS011;47555;51.038;6.280;2023-11-19T06:29:04;11.55;;;2.55;;
25153;SDS011;47555;51.038;6.280;2023-11-19T06:31:30;15.43;;;2.53;;
25153;SDS011;47555;51.038;6.280;2023-11-19T06:33:56;16.98;;;2.65;;
25153;SDS011;47555;51.038;6.280;2023-11-19T06:36:22;14.70;;;3.15;;
25153;SDS011;47555;51.038;6.280;2023-11-19T06:38:48;14.98;;;2.85;;
25153;SDS011;47555;51.038;6.280;2023-11-19T06:41:14;13.80;;;2.65;;
25153;SDS011;47555;51.038;6.280;2023-11-19T06:43:40;13.05;;;3.63;;
25153;SDS011;47555;51.038;6.280;2023-11-19T06:46:06;14.07;;;2.45;;
25153;SDS011;47555;51.038;6.280;2023-11-19T06:48:39;17.17;;;3.70;;
25153;SDS011;47555;51.038;6.280;2023-11-19T06:51:07;16.90;;;2.78;;
25153;SDS011;47555;51.038;6.280;2023-11-19T06:53:33;13.60;;;2.50;;
25153;SDS011;47555;51.038;6.280;2023-11-19T06:56:00;21.83;;;3.55;;
25153;SDS011;47555;51.038;6.280;2023-11-19T06:58:28;12.07;;;2.40;;
25153;SDS011;47555;51.038;6.280;2023-11-19T07:00:54;11.43;;;3.58;;
25153;SDS011;47555;51.038;6.280;2023-11-19T07:03:20;14.48;;;3.15;;
25153;SDS011;47555;51.038;6.280;2023-11-19T07:05:46;14.60;;;2.78;;
25153;SDS011;47555;51.038;6.280;2023-11-19T07:08:13;10.68;;;2.50;;
25153;SDS011;47555;51.038;6.280;2023-11-19T07:10:39;9.27;;;2.35;;
25153;SDS011;47555;51.038;6.280;2023-11-19T07:13:05;13.02;;;3.13;;
25153;SDS011;47555;51.038;6.280;2023-11-19T07:15:31;10.65;;;2.22;;
25153;SDS011;47555;51.038;6.280;2023-11-19T07:17:57;20.73;;;3.53;;
25153;SDS011;47555;51.038;6.280;2023-11-19T07:20:24;14.80;;;3.05;;
25153;SDS011;47555;51.038;6.280;2023-11-19T07:22:51;17.17;;;2.38;;
25153;SDS011;47555;51.038;6.280;2023-11-19T07:25:17;11.68;;;2.55;;
25153;SDS011;47555;51.038;6.280;2023-11-19T07:27:43;10.68;;;2.17;;
25153;SDS011;47555;51.038;6.280;2023-11-19T07:30:09;10.65;;;3.17;;
25153;SDS011;47555;51.038;6.280;2023-11-19T07:32:38;11.85;;;2.72;;
25153;SDS011;47555;51.038;6.280;2023-11-19T07:35:04;11.68;;;2.83;;
25153;SDS011;47555;51.038;6.280;2023-11-19T07:37:30;8.20;;;2.20;;
25153;SDS011;47555;51.038;6.280;2023-11-19T07:39:56;15.70;;;3.13;;
25153;SDS011;47555;51.038;6.280;2023-11-19T07:42:22;15.70;;;2.50;;
25153;SDS011;47555;51.038;6.280;2023-11-19T07:44:48;17.10;;;3.30;;
25153;SDS011;47555;51.038;6.280;2023-11-19T07:47:14;19.98;;;3.25;;
25153;SDS011;47555;51.038;6.280;2023-11-19T07:49:41;9.35;;;2.78;;
25153;SDS011;47555;51.038;6.280;2023-11-19T07:52:09;12.93;;;2.42;;
25153;SDS011;47555;51.038;6.280;2023-11-19T07:54:34;13.23;;;2.75;;
25153;SDS011;47555;51.038;6.280;2023-11-19T07:57:00;13.32;;;2.65;;
25153;SDS011;47555;51.038;6.280;2023-11-19T07:59:26;16.98;;;3.40;;
25153;SDS011;47555;51.038;6.280;2023-11-19T08:01:52;10.80;;;2.95;;
25153;SDS011;47555;51.038;6.280;2023-11-19T08:04:18;13.80;;;3.20;;
25153;SDS011;47555;51.038;6.280;2023-11-19T08:06:44;15.43;;;3.00;;
25153;SDS011;47555;51.038;6.280;2023-11-19T08:09:10;21.48;;;3.83;;
25153;SDS011;47555;51.038;6.280;2023-11-19T08:11:38;19.27;;;3.50;;
25153;SDS011;47555;51.038;6.280;2023-11-19T08:14:04;10.68;;;3.33;;
25153;SDS011;47555;51.038;6.280;2023-11-19T08:16:30;14.88;;;3.00;;
25153;SDS011;47555;51.038;6.280;2023-11-19T08:18:56;16.48;;;3.47;;
25153;SDS011;47555;51.038;6.280;2023-11-19T08:21:23;10.45;;;2.45;;
25153;SDS011;47555;51.038;6.280;2023-11-19T08:23:49;15.50;;;3.22;;
25153;SDS011;47555;51.038;6.280;2023-11-19T08:26:15;12.60;;;2.78;;
25153;SDS011;47555;51.038;6.280;2023-11-19T08:28:41;20.85;;;3.17;;
25153;SDS011;47555;51.038;6.280;2023-11-19T08:31:07;19.90;;;2.95;;
25153;SDS011;47555;51.038;6.280;2023-11-19T08:33:33;14.32;;;3.08;;
25153;SDS011;47555;51.038;6.280;2023-11-19T08:35:59;16.27;;;2.58;;
25153;SDS011;47555;51.038;6.280;2023-11-19T08:38:25;17.08;;;3.25;;
25153;SDS011;47555;51.038;6.280;2023-11-19T08:40:51;15.15;;;2.63;;
25153;SDS011;47555;51.038;6.280;2023-11-19T08:43:17;19.02;;;3.03;;
25153;SDS011;47555;51.038;6.280;2023-11-19T08:45:43;10.02;;;2.72;;
25153;SDS011;47555;51.038;6.280;2023-11-19T08:48:09;11.75;;;2.60;;
25153;SDS011;47555;51.038;6.280;2023-11-19T08:50:35;15.25;;;2.78;;
25153;SDS011;47555;51.038;6.280;2023-11-19T08:53:01;15.90;;;2.65;;
25153;SDS011;47555;51.038;6.280;2023-11-19T08:55:27;10.20;;;2.63;;
25153;SDS011;47555;51.038;6.280;2023-11-19T08:57:53;17.27;;;2.88;;
25153;SDS011;47555;51.038;6.280;2023-11-19T09:00:19;14.35;;;2.67;;
25153;SDS011;47555;51.038;6.280;2023-11-19T09:02:46;18.33;;;3.05;;
25153;SDS011;47555;51.038;6.280;2023-11-19T09:05:12;15.27;;;3.35;;
25153;SDS011;47555;51.038;6.280;2023-11-19T09:07:37;12.55;;;3.55;;
25153;SDS011;47555;51.038;6.280;2023-11-19T09:10:04;12.23;;;2.90;;
25153;SDS011;47555;51.038;6.280;2023-11-19T09:12:30;12.32;;;2.75;;
25153;SDS011;47555;51.038;6.280;2023-11-19T09:14:56;13.35;;;2.67;;
25153;SDS011;47555;51.038;6.280;2023-11-19T09:17:22;16.42;;;3.97;;
25153;SDS011;47555;51.038;6.280;2023-11-19T09:19:48;16.25;;;3.58;;
25153;SDS011;47555;51.038;6.280;2023-11-19T09:22:14;19.77;;;3.17;;
25153;SDS011;47555;51.038;6.280;2023-11-19T09:24:41;15.77;;;2.70;;
25153;SDS011;47555;51.038;6.280;2023-11-19T09:27:09;13.57;;;3.28;;
25153;SDS011;47555;51.038;6.280;2023-11-19T09:29:35;18.35;;;3.50;;
25153;SDS011;47555;51.038;6.280;2023-11-19T09:32:01;15.60;;;2.97;;
25153;SDS011;47555;51.038;6.280;2023-11-19T09:34:27;19.15;;;2.67;;
25153;SDS011;47555;51.038;6.280;2023-11-19T09:36:53;14.88;;;2.40;;
25153;SDS011;47555;51.038;6.280;2023-11-19T09:39:19;20.80;;;3.03;;
25153;SDS011;47555;51.038;6.280;2023-11-19T09:41:46;16.10;;;2.83;;
25153;SDS011;47555;51.038;6.280;2023-11-19T09:44:12;10.52;;;2.83;;
25153;SDS011;47555;51.038;6.280;2023-11-19T09:46:40;16.85;;;2.75;;
25153;SDS011;47555;51.038;6.280;2023-11-19T09:49:07;11.30;;;2.95;;
25153;SDS011;47555;51.038;6.280;2023-11-19T09:51:34;19.83;;;3.42;;
25153;SDS011;47555;51.038;6.280;2023-11-19T09:54:00;13.02;;;2.53;;
25153;SDS011;47555;51.038;6.280;2023-11-19T09:56:26;18.50;;;3.05;;
25153;SDS011;47555;51.038;6.280;2023-11-19T09:58:54;17.08;;;3.65;;
25153;SDS011;47555;51.038;6.280;2023-11-19T10:01:20;13.20;;;2.72;;
25153;SDS011;47555;51.038;6.280;2023-11-19T10:03:47;13.98;;;2.55;;
25153;SDS011;47555;51.038;6.280;2023-11-19T10:06:14;17.88;;;2.85;;
25153;SDS011;47555;51.038;6.280;2023-11-19T10:08:41;12.45;;;2.25;;
25153;SDS011;47555;51.038;6.280;2023-11-19T10:11:08;17.02;;;3.55;;
25153;SDS011;47555;51.038;6.280;2023-11-19T10:13:37;13.43;;;2.90;;
25153;SDS011;47555;51.038;6.280;2023-11-19T10:16:09;15.18;;;2.75;;
25153;SDS011;47555;51.038;6.280;2023-11-19T10:18:37;14.40;;;2.50;;
25153;SDS011;47555;51.038;6.280;2023-11-19T10:21:04;19.67;;;3.22;;
25153;SDS011;47555;51.038;6.280;2023-11-19T10:23:31;17.30;;;3.13;;
25153;SDS011;47555;51.038;6.280;2023-11-19T10:26:03;12.82;;;2.72;;
25153;SDS011;47555;51.038;6.280;2023-11-19T10:28:38;9.73;;;2.72;;
25153;SDS011;47555;51.038;6.280;2023-11-19T10:31:08;16.98;;;2.58;;
25153;SDS011;47555;51.038;6.280;2023-11-19T10:33:34;11.48;;;2.85;;
25153;SDS011;47555;51.038;6.280;2023-11-19T10:36:00;12.05;;;2.72;;
25153;SDS011;47555;51.038;6.280;2023-11-19T10:38:26;10.02;;;2.63;;
25153;SDS011;47555;51.038;6.280;2023-11-19T10:40:52;12.73;;;2.33;;
25153;SDS011;47555;51.038;6.280;2023-11-19T10:43:19;18.10;;;3.10;;
25153;SDS011;47555;51.038;6.280;2023-11-19T10:45:47;16.80;;;4.05;;
25153;SDS011;47555;51.038;6.280;2023-11-19T10:48:13;16.75;;;2.90;;
25153;SDS011;47555;51.038;6.280;2023-11-19T10:50:40;13.93;;;2.58;;
25153;SDS011;47555;51.038;6.280;2023-11-19T10:53:07;11.00;;;2.33;;
25153;SDS011;47555;51.038;6.280;2023-11-19T10:55:34;11.60;;;2.50;;
25153;SDS011;47555;51.038;6.280;2023-11-19T10:58:01;11.77;;;2.85;;
25153;SDS011;47555;51.038;6.280;2023-11-19T11:00:32;17.77;;;2.90;;
25153;SDS011;47555;51.038;6.280;2023-11-19T11:05:24;12.60;;;3.47;;
25153;SDS011;47555;51.038;6.280;2023-11-19T11:07:52;9.02;;;2.63;;
25153;SDS011;47555;51.038;6.280;2023-11-19T11:10:21;10.73;;;2.80;;
25153;SDS011;47555;51.038;6.280;2023-11-19T11:12:48;13.30;;;2.42;;
25153;SDS011;47555;51.038;6.280;2023-11-19T11:15:18;13.55;;;2.88;;
25153;SDS011;47555;51.038;6.280;2023-11-19T11:17:45;14.00;;;3.00;;
25153;SDS011;47555;51.038;6.280;2023-11-19T11:20:11;20.38;;;3.28;;
25153;SDS011;47555;51.038;6.280;2023-11-19T11:22:55;13.65;;;2.55;;
25153;SDS011;47555;51.038;6.280;2023-11-19T11:28:08;14.52;;;2.78;;
25153;SDS011;47555;51.038;6.280;2023-11-19T11:33:14;13.60;;;2.45;;
25153;SDS011;47555;51.038;6.280;2023-11-19T11:35:53;11.13;;;2.30;;
25153;SDS011;47555;51.038;6.280;2023-11-19T11:38:21;9.50;;;2.50;;
25153;SDS011;47555;51.038;6.280;2023-11-19T11:43:56;11.35;;;2.55;;
25153;SDS011;47555;51.038;6.280;2023-11-19T11:49:07;10.38;;;2.20;;
25153;SDS011;47555;51.038;6.280;2023-11-19T11:54:09;9.52;;;2.35;;
25153;SDS011;47555;51.038;6.280;2023-11-19T11:56:38;11.68;;;2.42;;
25153;SDS011;47555;51.038;6.280;2023-11-19T11:59:07;16.83;;;3.10;;
25153;SDS011;47555;51.038;6.280;2023-11-19T12:01:34;11.65;;;2.85;;
25153;SDS011;47555;51.038;6.280;2023-11-19T12:04:00;9.82;;;1.90;;
25153;SDS011;47555;51.038;6.280;2023-11-19T12:06:27;16.77;;;3.25;;
25153;SDS011;47555;51.038;6.280;2023-11-19T12:08:56;12.55;;;3.10;;
25153;SDS011;47555;51.038;6.280;2023-11-19T12:11:24;17.45;;;3.05;;
25153;SDS011;47555;51.038;6.280;2023-11-19T12:13:56;11.60;;;2.15;;
25153;SDS011;47555;51.038;6.280;2023-11-19T12:16:24;10.88;;;2.17;;
25153;SDS011;47555;51.038;6.280;2023-11-19T12:18:52;13.30;;;2.53;;
25153;SDS011;47555;51.038;6.280;2023-11-19T12:21:31;10.35;;;2.40;;
25153;SDS011;47555;51.038;6.280;2023-11-19T12:23:58;12.20;;;2.65;;
25153;SDS011;47555;51.038;6.280;2023-11-19T12:26:35;9.75;;;2.92;;
25153;SDS011;47555;51.038;6.280;2023-11-19T12:29:02;7.85;;;1.85;;
25153;SDS011;47555;51.038;6.280;2023-11-19T12:31:31;6.90;;;1.90;;
25153;SDS011;47555;51.038;6.280;2023-11-19T12:33:57;12.15;;;2.40;;
25153;SDS011;47555;51.038;6.280;2023-11-19T12:36:23;11.25;;;2.70;;
25153;SDS011;47555;51.038;6.280;2023-11-19T12:38:49;10.00;;;2.22;;
25153;SDS011;47555;51.038;6.280;2023-11-19T12:41:15;9.45;;;1.77;;
25153;SDS011;47555;51.038;6.280;2023-11-19T12:43:45;11.30;;;2.53;;
25153;SDS011;47555;51.038;6.280;2023-11-19T12:46:18;12.10;;;2.47;;
25153;SDS011;47555;51.038;6.280;2023-11-19T12:48:45;13.65;;;2.38;;
25153;SDS011;47555;51.038;6.280;2023-11-19T12:51:11;11.60;;;3.42;;
25153;SDS011;47555;51.038;6.280;2023-11-19T12:53:50;13.23;;;2.67;;
25153;SDS011;47555;51.038;6.280;2023-11-19T12:56:19;9.75;;;2.58;;
25153;SDS011;47555;51.038;6.280;2023-11-19T12:58:46;14.68;;;3.08;;
25153;SDS011;47555;51.038;6.280;2023-11-19T13:01:15;13.70;;;2.33;;
25153;SDS011;47555;51.038;6.280;2023-11-19T13:03:41;12.02;;;2.65;;
25153;SDS011;47555;51.038;6.280;2023-11-19T13:06:08;16.48;;;3.03;;
25153;SDS011;47555;51.038;6.280;2023-11-19T13:11:03;11.63;;;2.55;;
25153;SDS011;47555;51.038;6.280;2023-11-19T13:13:29;14.05;;;3.47;;
25153;SDS011;47555;51.038;6.280;2023-11-19T13:16:04;11.88;;;2.33;;
25153;SDS011;47555;51.038;6.280;2023-11-19T13:18:31;19.20;;;3.38;;
25153;SDS011;47555;51.038;6.280;2023-11-19T13:20:57;11.65;;;2.90;;
25153;SDS011;47555;51.038;6.280;2023-11-19T13:23:23;11.75;;;3.03;;
25153;SDS011;47555;51.038;6.280;2023-11-19T13:25:49;11.48;;;2.97;;
25153;SDS011;47555;51.038;6.280;2023-11-19T13:28:14;13.75;;;2.75;;
25153;SDS011;47555;51.038;6.280;2023-11-19T13:30:40;16.73;;;2.70;;
25153;SDS011;47555;51.038;6.280;2023-11-19T13:33:06;14.02;;;2.90;;
25153;SDS011;47555;51.038;6.280;2023-11-19T13:35:32;11.85;;;2.65;;
25153;SDS011;47555;51.038;6.280;2023-11-19T13:37:59;11.25;;;2.92;;
25153;SDS011;47555;51.038;6.280;2023-11-19T13:40:25;10.40;;;2.90;;
25153;SDS011;47555;51.038;6.280;2023-11-19T13:42:51;11.57;;;2.88;;
25153;SDS011;47555;51.038;6.280;2023-11-19T13:45:17;13.95;;;2.88;;
25153;SDS011;47555;51.038;6.280;2023-11-19T13:47:44;9.85;;;3.65;;
25153;SDS011;47555;51.038;6.280;2023-11-19T13:50:10;13.95;;;2.90;;
25153;SDS011;47555;51.038;6.280;2023-11-19T13:52:37;10.65;;;2.20;;
25153;SDS011;47555;51.038;6.280;2023-11-19T13:55:04;13.10;;;2.45;;
25153;SDS011;47555;51.038;6.280;2023-11-19T13:57:31;17.85;;;2.65;;
25153;SDS011;47555;51.038;6.280;2023-11-19T13:59:57;9.85;;;2.20;;
25153;SDS011;47555;51.038;6.280;2023-11-19T14:02:23;12.30;;;2.35;;
25153;SDS011;47555;51.038;6.280;2023-11-19T14:04:49;12.60;;;2.38;;
25153;SDS011;47555;51.038;6.280;2023-11-19T14:07:15;11.13;;;2.35;;
25153;SDS011;47555;51.038;6.280;2023-11-19T14:09:44;7.93;;;2.38;;
25153;SDS011;47555;51.038;6.280;2023-11-19T14:12:10;8.32;;;2.45;;
25153;SDS011;47555;51.038;6.280;2023-11-19T14:14:37;8.48;;;1.98;;
25153;SDS011;47555;51.038;6.280;2023-11-19T14:17:04;9.75;;;2.20;;
25153;SDS011;47555;51.038;6.280;2023-11-19T14:19:30;9.90;;;2.03;;
25153;SDS011;47555;51.038;6.280;2023-11-19T14:21:56;6.75;;;1.67;;
25153;SDS011;47555;51.038;6.280;2023-11-19T14:24:22;15.55;;;3.05;;
25153;SDS011;47555;51.038;6.280;2023-11-19T14:26:49;9.10;;;2.45;;
25153;SDS011;47555;51.038;6.280;2023-11-19T14:29:16;14.25;;;2.58;;
25153;SDS011;47555;51.038;6.280;2023-11-19T14:31:42;5.82;;;2.63;;
25153;SDS011;47555;51.038;6.280;2023-11-19T14:34:08;13.93;;;2.28;;
25153;SDS011;47555;51.038;6.280;2023-11-19T14:36:34;14.43;;;2.67;;
25153;SDS011;47555;51.038;6.280;2023-11-19T14:39:00;17.27;;;2.80;;
25153;SDS011;47555;51.038;6.280;2023-11-19T14:41:26;11.48;;;2.25;;
25153;SDS011;47555;51.038;6.280;2023-11-19T14:43:52;13.93;;;2.40;;
25153;SDS011;47555;51.038;6.280;2023-11-19T14:46:18;13.88;;;3.10;;
25153;SDS011;47555;51.038;6.280;2023-11-19T14:48:44;11.45;;;3.20;;
25153;SDS011;47555;51.038;6.280;2023-11-19T14:51:10;14.85;;;2.75;;
25153;SDS011;47555;51.038;6.280;2023-11-19T14:53:37;8.20;;;2.33;;
25153;SDS011;47555;51.038;6.280;2023-11-19T14:56:03;11.80;;;2.30;;